KBGR/BGR METAR and TAF weather

Enter ICAO airport designator
Station Type Date Time Source
KBGR METAR 2022/01/26 12:53 UTC NOAA

KBGR 261253Z 32011KT 10SM FEW200 M13/M18 A3021 RMK AO2 SLP235 T11331183


Station Type Date Time Source
KBGR Decoded METAR 2022/01/26 12:53 UTC NOAA

BANGOR INT'L AIRPORT, ME, United States (KBGR) 44-48N 068-49W 57M
Jan 26, 2022 - 07:53 AM EST / 2022.01.26 1253 UTC
Wind: from the NW (320 degrees) at 13 MPH (11 KT):0
Visibility: 10 mile(s):0
Sky conditions: mostly clear
Temperature: 8.1 F (-13.3 C)
Windchill: -7 F (-22 C):2
Dew Point: -0.9 F (-18.3 C)
Relative Humidity: 66%
Pressure (altimeter): 30.21 in. Hg (1023 hPa)
ob: KBGR 261253Z 32011KT 10SM FEW200 M13/M18 A3021 RMK AO2 SLP235 T11331183
cycle: 13

Station Type Date Time Source
KBGR TAF 2022/01/26 12:22 UTC NOAA

TAF KBGR 261120Z 2612/2712 31007KT P6SM FEW100
FM270600 00000KT P6SM SKC

Example: see airport list